Time,TemperatureF,DewpointF,PressureIn,WindDirection,WindDirectionDegrees,WindSpeedMPH,WindSpeedGustMPH,Humidity,HourlyPrecipIn,Conditions,Clouds,dailyrainin,SoftwareType,DateUTC
2014-01-07 00:12:00,29.0,22.0,-100.00,NW,318,3.0,3.0,75,-99.99,,,-99.99,,2014-01-07 08:12:00,
2014-01-07 00:42:00,29.0,23.0,-100.00,NNW,332,4.0,4.0,77,-99.99,,,-99.99,,2014-01-07 08:42:00,
2014-01-07 02:23:00,30.0,23.0,-100.00,SSW,206,3.0,3.0,75,-99.99,,,-99.99,,2014-01-07 10:23:00,
2014-01-07 02:42:00,30.0,23.0,-100.00,South,170,3.0,3.0,77,-99.99,,,-99.99,,2014-01-07 10:42:00,
2014-01-07 03:22:00,29.0,24.0,-100.00,SE,143,4.0,4.0,79,-99.99,,,-99.99,,2014-01-07 11:22:00,
2014-01-07 03:43:00,29.0,23.0,-100.00,SE,142,4.0,4.0,77,-99.99,,,-99.99,,2014-01-07 11:43:00,
2014-01-07 04:22:00,30.0,22.0,-100.00,SE,130,5.0,5.0,72,-99.99,,,-99.99,,2014-01-07 12:22:00,
2014-01-07 04:43:00,29.0,22.0,-100.00,ESE,117,5.0,5.0,73,-99.99,,,-99.99,,2014-01-07 12:43:00,
2014-01-07 04:52:00,29.0,22.0,-100.00,ESE,116,4.0,4.0,73,-99.99,,,-99.99,,2014-01-07 12:52:00,
2014-01-07 05:21:00,29.0,22.0,-100.00,ESE,113,6.0,6.0,74,-99.99,,,-99.99,,2014-01-07 13:21:00,
2014-01-07 06:22:00,28.0,23.0,-100.00,SE,130,5.0,6.0,83,-99.99,,,-99.99,,2014-01-07 14:22:00,
2014-01-07 06:42:00,27.0,25.0,-100.00,ESE,105,5.0,7.0,93,-99.99,,,-99.99,,2014-01-07 14:42:00,
2014-01-07 07:11:00,27.0,26.0,-100.00,East,100,3.0,4.0,95,-99.99,,,-99.99,,2014-01-07 15:11:00,
2014-01-07 07:22:00,27.0,26.0,-100.00,ESE,113,3.0,3.0,94,-99.99,,,-99.99,,2014-01-07 15:22:00,
2014-01-07 07:43:00,27.0,24.0,-100.00,East,96,4.0,5.0,88,-99.99,,,-99.99,,2014-01-07 15:43:00,
2014-01-07 07:53:00,27.0,25.0,-100.00,ESE,116,5.0,5.0,90,-99.99,,,-99.99,,2014-01-07 15:53:00,
2014-01-07 08:23:00,27.0,26.0,-100.00,East,84,4.0,5.0,95,-99.99,,,-99.99,,2014-01-07 16:23:00,
2014-01-07 09:22:00,28.0,25.0,-100.00,ENE,74,4.0,4.0,88,-99.99,,,-99.99,,2014-01-07 17:22:00,
2014-01-07 10:21:00,31.0,25.0,-100.00,SSE,156,1.0,3.0,78,-99.99,,,-99.99,,2014-01-07 18:21:00,
2014-01-07 10:42:00,31.0,25.0,-100.00,SSW,206,1.0,1.0,76,-99.99,,,-99.99,,2014-01-07 18:42:00,
2014-01-07 11:21:00,33.0,25.0,-100.00,SSE,163,4.0,4.0,71,-99.99,,,-99.99,,2014-01-07 19:21:00,
2014-01-07 12:22:00,37.0,27.0,-100.00,SSE,160,3.0,4.0,64,-99.99,,,-99.99,,2014-01-07 20:22:00,
2014-01-07 13:22:00,35.0,27.0,-100.00,ESE,103,4.0,6.0,72,-99.99,,,-99.99,,2014-01-07 21:22:00,
2014-01-07 14:23:00,34.0,27.0,-100.00,NW,318,2.0,3.0,78,-99.99,,,-99.99,,2014-01-07 22:23:00,
2014-01-07 15:22:00,32.0,31.0,-100.00,East,83,3.0,5.0,93,-99.99,,,-99.99,,2014-01-07 23:22:00,
2014-01-07 16:22:00,33.0,32.0,-100.00,WNW,303,4.0,5.0,99,-99.99,,,-99.99,,2014-01-08 00:22:00,
2014-01-07 17:22:00,30.0,30.0,-100.00,ESE,118,7.0,8.0,101,-99.99,,,-99.99,,2014-01-08 01:22:00,
2014-01-07 17:42:00,30.0,30.0,-100.00,ESE,120,7.0,7.0,101,-99.99,,,-99.99,,2014-01-08 01:42:00,
2014-01-07 18:21:00,30.0,30.0,-100.00,SE,135,4.0,5.0,102,-99.99,,,-99.99,,2014-01-08 02:21:00,
2014-01-07 19:21:00,30.0,30.0,-100.00,ESE,119,7.0,7.0,102,-99.99,,,-99.99,,2014-01-08 03:21:00,
2014-01-07 19:43:00,30.0,30.0,-100.00,ESE,115,5.0,6.0,102,-99.99,,,-99.99,,2014-01-08 03:43:00,
2014-01-07 20:23:00,29.0,29.0,-100.00,ESE,104,6.0,7.0,102,-99.99,,,-99.99,,2014-01-08 04:23:00,
2014-01-07 21:22:00,30.0,30.0,-100.00,ESE,109,4.0,4.0,102,-99.99,,,-99.99,,2014-01-08 05:22:00,
2014-01-07 21:43:00,30.0,30.0,-100.00,ESE,116,3.0,3.0,102,-99.99,,,-99.99,,2014-01-08 05:43:00,
2014-01-07 23:42:00,30.0,30.0,-100.00,ESE,114,2.0,3.0,100,-99.99,,,-99.99,,2014-01-08 07:42:00,